sensor_id;sensor_type;location;lat;lon;timestamp;P1;durP1;ratioP1;P2;durP2;ratioP2
48522;SDS011;34315;50.150;11.070;2023-10-19T00:04:01;20.30;;;11.50;;
48522;SDS011;34315;50.150;11.070;2023-10-19T00:09:02;18.85;;;11.13;;
48522;SDS011;34315;50.150;11.070;2023-10-19T00:14:03;20.10;;;11.30;;
48522;SDS011;34315;50.150;11.070;2023-10-19T00:19:05;16.92;;;10.90;;
48522;SDS011;34315;50.150;11.070;2023-10-19T00:24:06;16.73;;;11.38;;
48522;SDS011;34315;50.150;11.070;2023-10-19T00:29:07;21.08;;;12.50;;
48522;SDS011;34315;50.150;11.070;2023-10-19T00:34:37;19.13;;;11.32;;
48522;SDS011;34315;50.150;11.070;2023-10-19T00:39:39;18.33;;;11.48;;
48522;SDS011;34315;50.150;11.070;2023-10-19T00:44:51;18.98;;;11.65;;
48522;SDS011;34315;50.150;11.070;2023-10-19T00:49:52;17.75;;;11.60;;
48522;SDS011;34315;50.150;11.070;2023-10-19T00:54:55;17.13;;;11.07;;
48522;SDS011;34315;50.150;11.070;2023-10-19T00:59:59;17.10;;;11.40;;
48522;SDS011;34315;50.150;11.070;2023-10-19T01:05:12;18.15;;;11.55;;
48522;SDS011;34315;50.150;11.070;2023-10-19T01:10:18;17.80;;;11.07;;
48522;SDS011;34315;50.150;11.070;2023-10-19T01:15:22;18.80;;;11.18;;
48522;SDS011;34315;50.150;11.070;2023-10-19T01:20:30;19.15;;;11.73;;
48522;SDS011;34315;50.150;11.070;2023-10-19T01:25:32;16.98;;;11.73;;
48522;SDS011;34315;50.150;11.070;2023-10-19T01:30:59;17.23;;;10.85;;
48522;SDS011;34315;50.150;11.070;2023-10-19T01:36:07;20.08;;;11.20;;
48522;SDS011;34315;50.150;11.070;2023-10-19T01:41:11;18.10;;;12.38;;
48522;SDS011;34315;50.150;11.070;2023-10-19T01:46:19;17.63;;;11.68;;
48522;SDS011;34315;50.150;11.070;2023-10-19T01:51:33;20.92;;;11.55;;
48522;SDS011;34315;50.150;11.070;2023-10-19T01:56:39;19.15;;;11.35;;
48522;SDS011;34315;50.150;11.070;2023-10-19T02:01:43;24.20;;;11.98;;
48522;SDS011;34315;50.150;11.070;2023-10-19T02:06:46;19.52;;;11.85;;
48522;SDS011;34315;50.150;11.070;2023-10-19T02:11:49;16.48;;;11.25;;
48522;SDS011;34315;50.150;11.070;2023-10-19T02:16:54;18.38;;;12.00;;
48522;SDS011;34315;50.150;11.070;2023-10-19T02:22:00;20.40;;;11.88;;
48522;SDS011;34315;50.150;11.070;2023-10-19T02:27:08;17.92;;;11.70;;
48522;SDS011;34315;50.150;11.070;2023-10-19T02:32:09;21.52;;;12.75;;
48522;SDS011;34315;50.150;11.070;2023-10-19T02:37:10;17.40;;;11.38;;
48522;SDS011;34315;50.150;11.070;2023-10-19T02:42:12;20.95;;;12.40;;
48522;SDS011;34315;50.150;11.070;2023-10-19T02:47:13;18.50;;;11.82;;
48522;SDS011;34315;50.150;11.070;2023-10-19T02:52:14;19.27;;;12.10;;
48522;SDS011;34315;50.150;11.070;2023-10-19T02:57:18;20.83;;;12.63;;
48522;SDS011;34315;50.150;11.070;2023-10-19T03:02:20;19.80;;;11.93;;
48522;SDS011;34315;50.150;11.070;2023-10-19T03:07:21;19.58;;;12.45;;
48522;SDS011;34315;50.150;11.070;2023-10-19T03:12:22;18.25;;;11.80;;
48522;SDS011;34315;50.150;11.070;2023-10-19T03:17:27;19.33;;;11.65;;
48522;SDS011;34315;50.150;11.070;2023-10-19T03:22:30;20.88;;;12.80;;
48522;SDS011;34315;50.150;11.070;2023-10-19T03:27:32;18.92;;;12.10;;
48522;SDS011;34315;50.150;11.070;2023-10-19T03:32:34;22.45;;;12.95;;
48522;SDS011;34315;50.150;11.070;2023-10-19T03:37:35;17.90;;;11.65;;
48522;SDS011;34315;50.150;11.070;2023-10-19T03:42:37;19.13;;;12.68;;
48522;SDS011;34315;50.150;11.070;2023-10-19T03:47:42;19.55;;;12.38;;
48522;SDS011;34315;50.150;11.070;2023-10-19T03:52:50;21.05;;;12.38;;
48522;SDS011;34315;50.150;11.070;2023-10-19T03:57:52;18.95;;;12.27;;
48522;SDS011;34315;50.150;11.070;2023-10-19T04:02:55;18.52;;;12.23;;
48522;SDS011;34315;50.150;11.070;2023-10-19T04:07:57;19.63;;;12.68;;
48522;SDS011;34315;50.150;11.070;2023-10-19T04:13:00;21.85;;;12.80;;
48522;SDS011;34315;50.150;11.070;2023-10-19T04:18:02;21.15;;;12.80;;
48522;SDS011;34315;50.150;11.070;2023-10-19T04:23:09;20.98;;;12.80;;
48522;SDS011;34315;50.150;11.070;2023-10-19T04:28:15;21.85;;;12.43;;
48522;SDS011;34315;50.150;11.070;2023-10-19T04:33:16;20.85;;;13.18;;
48522;SDS011;34315;50.150;11.070;2023-10-19T04:38:19;20.73;;;12.65;;
48522;SDS011;34315;50.150;11.070;2023-10-19T04:43:20;20.50;;;13.10;;
48522;SDS011;34315;50.150;11.070;2023-10-19T04:48:22;19.85;;;12.82;;
48522;SDS011;34315;50.150;11.070;2023-10-19T04:53:23;20.95;;;12.70;;
48522;SDS011;34315;50.150;11.070;2023-10-19T04:58:24;21.35;;;13.07;;
48522;SDS011;34315;50.150;11.070;2023-10-19T05:03:25;19.58;;;13.07;;
48522;SDS011;34315;50.150;11.070;2023-10-19T05:08:27;21.35;;;13.15;;
48522;SDS011;34315;50.150;11.070;2023-10-19T05:13:30;20.33;;;12.77;;
48522;SDS011;34315;50.150;11.070;2023-10-19T05:18:31;23.85;;;13.35;;
48522;SDS011;34315;50.150;11.070;2023-10-19T05:23:32;21.77;;;13.02;;
48522;SDS011;34315;50.150;11.070;2023-10-19T05:28:33;19.90;;;12.63;;
48522;SDS011;34315;50.150;11.070;2023-10-19T05:33:34;20.52;;;13.80;;
48522;SDS011;34315;50.150;11.070;2023-10-19T05:38:35;21.60;;;13.43;;
48522;SDS011;34315;50.150;11.070;2023-10-19T05:43:37;22.00;;;13.52;;
48522;SDS011;34315;50.150;11.070;2023-10-19T05:48:39;22.55;;;14.10;;
48522;SDS011;34315;50.150;11.070;2023-10-19T05:53:40;19.52;;;13.48;;
48522;SDS011;34315;50.150;11.070;2023-10-19T05:58:42;22.70;;;13.60;;
48522;SDS011;34315;50.150;11.070;2023-10-19T06:03:49;22.95;;;14.40;;
48522;SDS011;34315;50.150;11.070;2023-10-19T06:08:51;23.38;;;14.00;;
48522;SDS011;34315;50.150;11.070;2023-10-19T06:13:54;21.00;;;14.45;;
48522;SDS011;34315;50.150;11.070;2023-10-19T06:18:55;22.38;;;13.55;;
48522;SDS011;34315;50.150;11.070;2023-10-19T06:23:56;20.55;;;13.20;;
48522;SDS011;34315;50.150;11.070;2023-10-19T06:28:57;21.55;;;14.25;;
48522;SDS011;34315;50.150;11.070;2023-10-19T06:34:02;23.02;;;14.25;;
48522;SDS011;34315;50.150;11.070;2023-10-19T06:39:03;22.58;;;14.60;;
48522;SDS011;34315;50.150;11.070;2023-10-19T06:44:06;19.80;;;13.35;;
48522;SDS011;34315;50.150;11.070;2023-10-19T06:49:07;22.33;;;14.13;;
48522;SDS011;34315;50.150;11.070;2023-10-19T06:54:09;23.77;;;15.00;;
48522;SDS011;34315;50.150;11.070;2023-10-19T06:59:10;21.23;;;13.27;;
48522;SDS011;34315;50.150;11.070;2023-10-19T07:04:11;20.35;;;13.68;;
48522;SDS011;34315;50.150;11.070;2023-10-19T07:09:12;21.90;;;14.18;;
48522;SDS011;34315;50.150;11.070;2023-10-19T07:14:13;21.35;;;13.45;;
48522;SDS011;34315;50.150;11.070;2023-10-19T07:19:14;25.67;;;14.80;;
48522;SDS011;34315;50.150;11.070;2023-10-19T07:24:16;21.88;;;14.10;;
48522;SDS011;34315;50.150;11.070;2023-10-19T07:29:20;20.45;;;13.27;;
48522;SDS011;34315;50.150;11.070;2023-10-19T07:34:21;23.88;;;15.02;;
48522;SDS011;34315;50.150;11.070;2023-10-19T07:39:26;23.98;;;15.32;;
48522;SDS011;34315;50.150;11.070;2023-10-19T07:44:30;25.47;;;14.30;;
48522;SDS011;34315;50.150;11.070;2023-10-19T07:49:31;25.77;;;14.57;;
48522;SDS011;34315;50.150;11.070;2023-10-19T07:54:33;22.17;;;13.95;;
48522;SDS011;34315;50.150;11.070;2023-10-19T07:59:35;23.20;;;13.98;;
48522;SDS011;34315;50.150;11.070;2023-10-19T08:04:36;23.00;;;14.27;;
48522;SDS011;34315;50.150;11.070;2023-10-19T08:09:38;23.23;;;14.52;;
48522;SDS011;34315;50.150;11.070;2023-10-19T08:14:39;22.80;;;14.40;;
48522;SDS011;34315;50.150;11.070;2023-10-19T08:19:40;22.63;;;14.65;;
48522;SDS011;34315;50.150;11.070;2023-10-19T08:24:41;21.17;;;14.52;;
48522;SDS011;34315;50.150;11.070;2023-10-19T08:29:46;23.75;;;15.00;;
48522;SDS011;34315;50.150;11.070;2023-10-19T08:34:47;22.48;;;13.85;;
48522;SDS011;34315;50.150;11.070;2023-10-19T08:39:49;20.30;;;13.80;;
48522;SDS011;34315;50.150;11.070;2023-10-19T08:44:51;21.77;;;14.43;;
48522;SDS011;34315;50.150;11.070;2023-10-19T08:49:53;24.45;;;14.68;;
48522;SDS011;34315;50.150;11.070;2023-10-19T08:54:54;19.08;;;13.32;;
48522;SDS011;34315;50.150;11.070;2023-10-19T08:59:55;23.58;;;14.13;;
48522;SDS011;34315;50.150;11.070;2023-10-19T09:04:59;21.50;;;13.85;;
48522;SDS011;34315;50.150;11.070;2023-10-19T09:10:07;18.13;;;12.40;;
48522;SDS011;34315;50.150;11.070;2023-10-19T09:15:23;22.52;;;13.88;;
48522;SDS011;34315;50.150;11.070;2023-10-19T09:20:24;21.02;;;14.23;;
48522;SDS011;34315;50.150;11.070;2023-10-19T09:25:28;20.53;;;13.47;;
48522;SDS011;34315;50.150;11.070;2023-10-19T09:30:30;19.83;;;13.48;;
48522;SDS011;34315;50.150;11.070;2023-10-19T09:35:34;20.52;;;13.75;;
48522;SDS011;34315;50.150;11.070;2023-10-19T09:40:37;20.20;;;13.23;;
48522;SDS011;34315;50.150;11.070;2023-10-19T09:45:40;18.77;;;13.40;;
48522;SDS011;34315;50.150;11.070;2023-10-19T09:50:44;18.85;;;13.35;;
48522;SDS011;34315;50.150;11.070;2023-10-19T09:55:58;21.17;;;14.52;;
48522;SDS011;34315;50.150;11.070;2023-10-19T10:01:00;19.83;;;14.00;;
48522;SDS011;34315;50.150;11.070;2023-10-19T10:06:03;23.10;;;14.68;;
48522;SDS011;34315;50.150;11.070;2023-10-19T10:11:21;20.75;;;14.65;;
48522;SDS011;34315;50.150;11.070;2023-10-19T10:16:29;20.65;;;13.90;;
48522;SDS011;34315;50.150;11.070;2023-10-19T10:21:30;20.27;;;14.10;;
48522;SDS011;34315;50.150;11.070;2023-10-19T10:26:31;20.80;;;14.80;;
48522;SDS011;34315;50.150;11.070;2023-10-19T10:31:58;20.23;;;14.52;;
48522;SDS011;34315;50.150;11.070;2023-10-19T10:37:01;22.60;;;14.63;;
48522;SDS011;34315;50.150;11.070;2023-10-19T10:42:04;21.25;;;14.13;;
48522;SDS011;34315;50.150;11.070;2023-10-19T10:47:07;21.25;;;13.80;;
48522;SDS011;34315;50.150;11.070;2023-10-19T10:52:09;22.05;;;15.80;;
48522;SDS011;34315;50.150;11.070;2023-10-19T10:57:10;25.00;;;15.18;;
48522;SDS011;34315;50.150;11.070;2023-10-19T11:02:29;22.77;;;14.90;;
48522;SDS011;34315;50.150;11.070;2023-10-19T11:07:30;24.67;;;15.65;;
48522;SDS011;34315;50.150;11.070;2023-10-19T11:12:33;22.30;;;15.75;;
48522;SDS011;34315;50.150;11.070;2023-10-19T11:17:34;26.58;;;15.25;;
48522;SDS011;34315;50.150;11.070;2023-10-19T11:22:49;21.85;;;14.82;;
48522;SDS011;34315;50.150;11.070;2023-10-19T11:27:50;23.67;;;15.05;;
48522;SDS011;34315;50.150;11.070;2023-10-19T11:32:53;22.27;;;15.23;;
48522;SDS011;34315;50.150;11.070;2023-10-19T11:37:58;20.73;;;15.00;;
48522;SDS011;34315;50.150;11.070;2023-10-19T11:43:00;23.08;;;14.90;;
48522;SDS011;34315;50.150;11.070;2023-10-19T11:48:01;22.98;;;16.10;;
48522;SDS011;34315;50.150;11.070;2023-10-19T11:53:03;25.30;;;16.45;;
48522;SDS011;34315;50.150;11.070;2023-10-19T11:58:04;22.98;;;15.82;;
48522;SDS011;34315;50.150;11.070;2023-10-19T12:03:05;26.67;;;16.02;;
48522;SDS011;34315;50.150;11.070;2023-10-19T12:08:07;24.65;;;16.35;;
48522;SDS011;34315;50.150;11.070;2023-10-19T12:13:08;22.83;;;15.82;;
48522;SDS011;34315;50.150;11.070;2023-10-19T12:18:09;22.02;;;15.13;;
48522;SDS011;34315;50.150;11.070;2023-10-19T12:23:12;22.08;;;14.80;;
48522;SDS011;34315;50.150;11.070;2023-10-19T12:28:13;22.35;;;15.52;;
48522;SDS011;34315;50.150;11.070;2023-10-19T12:33:14;21.77;;;14.45;;
48522;SDS011;34315;50.150;11.070;2023-10-19T12:38:16;22.50;;;15.85;;
48522;SDS011;34315;50.150;11.070;2023-10-19T12:43:17;20.77;;;14.30;;
48522;SDS011;34315;50.150;11.070;2023-10-19T12:48:25;22.27;;;15.35;;
48522;SDS011;34315;50.150;11.070;2023-10-19T12:53:31;19.52;;;14.60;;
48522;SDS011;34315;50.150;11.070;2023-10-19T12:58:33;23.33;;;14.77;;
48522;SDS011;34315;50.150;11.070;2023-10-19T13:03:35;22.45;;;15.00;;
48522;SDS011;34315;50.150;11.070;2023-10-19T13:08:39;22.85;;;15.52;;
48522;SDS011;34315;50.150;11.070;2023-10-19T13:13:41;20.88;;;14.93;;
48522;SDS011;34315;50.150;11.070;2023-10-19T13:18:42;21.02;;;15.23;;
48522;SDS011;34315;50.150;11.070;2023-10-19T13:23:44;22.60;;;15.40;;
48522;SDS011;34315;50.150;11.070;2023-10-19T13:28:46;21.10;;;14.70;;
48522;SDS011;34315;50.150;11.070;2023-10-19T13:33:47;20.40;;;15.35;;
48522;SDS011;34315;50.150;11.070;2023-10-19T13:38:49;24.17;;;15.60;;
48522;SDS011;34315;50.150;11.070;2023-10-19T13:43:50;21.95;;;15.68;;
48522;SDS011;34315;50.150;11.070;2023-10-19T13:48:51;22.05;;;15.20;;
48522;SDS011;34315;50.150;11.070;2023-10-19T13:53:52;21.85;;;15.90;;
48522;SDS011;34315;50.150;11.070;2023-10-19T13:58:53;21.27;;;14.57;;
48522;SDS011;34315;50.150;11.070;2023-10-19T14:03:55;25.35;;;15.82;;
48522;SDS011;34315;50.150;11.070;2023-10-19T14:08:56;22.77;;;15.68;;
48522;SDS011;34315;50.150;11.070;2023-10-19T14:13:57;23.65;;;15.95;;
48522;SDS011;34315;50.150;11.070;2023-10-19T14:18:59;21.13;;;15.02;;
48522;SDS011;34315;50.150;11.070;2023-10-19T14:24:00;24.60;;;16.00;;
48522;SDS011;34315;50.150;11.070;2023-10-19T14:29:01;21.77;;;15.20;;
48522;SDS011;34315;50.150;11.070;2023-10-19T14:34:02;22.20;;;15.73;;
48522;SDS011;34315;50.150;11.070;2023-10-19T14:39:04;21.88;;;15.52;;
48522;SDS011;34315;50.150;11.070;2023-10-19T14:44:06;21.88;;;15.00;;
48522;SDS011;34315;50.150;11.070;2023-10-19T14:49:08;22.58;;;15.95;;
48522;SDS011;34315;50.150;11.070;2023-10-19T14:54:09;23.33;;;16.42;;
48522;SDS011;34315;50.150;11.070;2023-10-19T14:59:11;23.35;;;15.20;;
48522;SDS011;34315;50.150;11.070;2023-10-19T15:04:14;23.40;;;16.55;;
48522;SDS011;34315;50.150;11.070;2023-10-19T15:09:15;25.50;;;16.80;;
48522;SDS011;34315;50.150;11.070;2023-10-19T15:14:21;20.85;;;15.95;;
48522;SDS011;34315;50.150;11.070;2023-10-19T15:19:22;25.58;;;17.05;;
48522;SDS011;34315;50.150;11.070;2023-10-19T15:24:24;23.50;;;16.75;;
48522;SDS011;34315;50.150;11.070;2023-10-19T15:29:26;23.75;;;16.83;;
48522;SDS011;34315;50.150;11.070;2023-10-19T15:34:27;25.20;;;17.50;;
48522;SDS011;34315;50.150;11.070;2023-10-19T15:39:31;23.35;;;16.42;;
48522;SDS011;34315;50.150;11.070;2023-10-19T15:44:32;24.70;;;17.05;;
48522;SDS011;34315;50.150;11.070;2023-10-19T15:49:33;25.25;;;16.80;;
48522;SDS011;34315;50.150;11.070;2023-10-19T15:54:35;21.85;;;16.05;;
48522;SDS011;34315;50.150;11.070;2023-10-19T15:59:36;22.30;;;15.68;;
48522;SDS011;34315;50.150;11.070;2023-10-19T16:04:39;22.80;;;15.85;;
48522;SDS011;34315;50.150;11.070;2023-10-19T16:09:41;24.52;;;16.35;;
48522;SDS011;34315;50.150;11.070;2023-10-19T16:14:43;23.77;;;16.40;;
48522;SDS011;34315;50.150;11.070;2023-10-19T16:19:44;23.13;;;16.15;;
48522;SDS011;34315;50.150;11.070;2023-10-19T16:24:45;23.67;;;16.15;;
48522;SDS011;34315;50.150;11.070;2023-10-19T16:29:47;22.63;;;16.92;;
48522;SDS011;34315;50.150;11.070;2023-10-19T16:34:48;25.20;;;16.85;;
48522;SDS011;34315;50.150;11.070;2023-10-19T16:39:49;25.25;;;17.40;;
48522;SDS011;34315;50.150;11.070;2023-10-19T16:44:52;24.08;;;16.55;;
48522;SDS011;34315;50.150;11.070;2023-10-19T16:49:53;27.90;;;16.85;;
48522;SDS011;34315;50.150;11.070;2023-10-19T16:54:55;23.52;;;17.10;;
48522;SDS011;34315;50.150;11.070;2023-10-19T16:59:56;25.08;;;18.05;;
48522;SDS011;34315;50.150;11.070;2023-10-19T17:04:57;27.92;;;19.88;;
48522;SDS011;34315;50.150;11.070;2023-10-19T17:09:58;28.45;;;17.83;;
48522;SDS011;34315;50.150;11.070;2023-10-19T17:14:59;24.52;;;15.63;;
48522;SDS011;34315;50.150;11.070;2023-10-19T17:20:01;22.58;;;15.63;;
48522;SDS011;34315;50.150;11.070;2023-10-19T17:25:03;23.02;;;16.52;;
48522;SDS011;34315;50.150;11.070;2023-10-19T17:30:05;23.88;;;16.13;;
48522;SDS011;34315;50.150;11.070;2023-10-19T17:35:06;25.38;;;16.48;;
48522;SDS011;34315;50.150;11.070;2023-10-19T17:40:09;25.52;;;16.35;;
48522;SDS011;34315;50.150;11.070;2023-10-19T17:45:11;26.92;;;17.27;;
48522;SDS011;34315;50.150;11.070;2023-10-19T17:50:12;22.95;;;15.98;;
48522;SDS011;34315;50.150;11.070;2023-10-19T17:55:15;25.55;;;16.42;;
48522;SDS011;34315;50.150;11.070;2023-10-19T18:00:21;24.90;;;16.95;;
48522;SDS011;34315;50.150;11.070;2023-10-19T18:05:22;25.60;;;17.42;;
48522;SDS011;34315;50.150;11.070;2023-10-19T18:10:24;26.27;;;17.70;;
48522;SDS011;34315;50.150;11.070;2023-10-19T18:15:29;24.25;;;16.63;;
48522;SDS011;34315;50.150;11.070;2023-10-19T18:20:30;23.42;;;16.02;;
48522;SDS011;34315;50.150;11.070;2023-10-19T18:25:31;25.10;;;16.40;;
48522;SDS011;34315;50.150;11.070;2023-10-19T18:30:33;23.42;;;17.00;;
48522;SDS011;34315;50.150;11.070;2023-10-19T18:35:34;24.25;;;17.02;;
48522;SDS011;34315;50.150;11.070;2023-10-19T18:40:35;24.67;;;17.50;;
48522;SDS011;34315;50.150;11.070;2023-10-19T18:45:36;26.10;;;17.08;;
48522;SDS011;34315;50.150;11.070;2023-10-19T18:50:37;28.08;;;16.80;;
48522;SDS011;34315;50.150;11.070;2023-10-19T18:55:39;24.20;;;17.85;;
48522;SDS011;34315;50.150;11.070;2023-10-19T19:00:40;22.35;;;16.10;;
48522;SDS011;34315;50.150;11.070;2023-10-19T19:05:47;21.88;;;15.48;;
48522;SDS011;34315;50.150;11.070;2023-10-19T19:10:49;23.15;;;15.85;;
48522;SDS011;34315;50.150;11.070;2023-10-19T19:15:51;21.27;;;15.40;;
48522;SDS011;34315;50.150;11.070;2023-10-19T19:20:52;22.83;;;16.08;;
48522;SDS011;34315;50.150;11.070;2023-10-19T19:25:58;24.38;;;16.33;;
48522;SDS011;34315;50.150;11.070;2023-10-19T19:30:59;24.60;;;16.02;;
48522;SDS011;34315;50.150;11.070;2023-10-19T19:36:01;24.83;;;16.13;;
48522;SDS011;34315;50.150;11.070;2023-10-19T19:41:02;24.00;;;15.75;;
48522;SDS011;34315;50.150;11.070;2023-10-19T19:46:04;26.20;;;17.60;;
48522;SDS011;34315;50.150;11.070;2023-10-19T19:51:05;22.20;;;15.63;;
48522;SDS011;34315;50.150;11.070;2023-10-19T19:56:09;20.97;;;15.57;;
48522;SDS011;34315;50.150;11.070;2023-10-19T20:01:10;24.30;;;16.13;;
48522;SDS011;34315;50.150;11.070;2023-10-19T20:06:12;22.00;;;16.00;;
48522;SDS011;34315;50.150;11.070;2023-10-19T20:11:18;20.73;;;15.38;;
48522;SDS011;34315;50.150;11.070;2023-10-19T20:21:21;24.35;;;16.13;;
48522;SDS011;34315;50.150;11.070;2023-10-19T20:26:22;26.60;;;16.33;;
48522;SDS011;34315;50.150;11.070;2023-10-19T20:31:24;23.27;;;15.15;;
48522;SDS011;34315;50.150;11.070;2023-10-19T20:36:26;21.13;;;15.20;;
48522;SDS011;34315;50.150;11.070;2023-10-19T20:41:27;25.15;;;16.45;;
48522;SDS011;34315;50.150;11.070;2023-10-19T20:46:28;22.75;;;14.95;;
48522;SDS011;34315;50.150;11.070;2023-10-19T20:51:30;24.13;;;15.98;;
48522;SDS011;34315;50.150;11.070;2023-10-19T20:56:31;23.35;;;16.33;;
48522;SDS011;34315;50.150;11.070;2023-10-19T21:01:32;25.00;;;15.45;;
48522;SDS011;34315;50.150;11.070;2023-10-19T21:06:33;23.38;;;15.13;;
48522;SDS011;34315;50.150;11.070;2023-10-19T21:11:34;22.17;;;14.00;;
48522;SDS011;34315;50.150;11.070;2023-10-19T21:16:36;21.27;;;14.68;;
48522;SDS011;34315;50.150;11.070;2023-10-19T21:21:37;21.65;;;14.25;;
48522;SDS011;34315;50.150;11.070;2023-10-19T21:26:38;21.23;;;14.50;;
48522;SDS011;34315;50.150;11.070;2023-10-19T21:31:40;21.77;;;14.48;;
48522;SDS011;34315;50.150;11.070;2023-10-19T21:36:41;31.00;;;17.65;;
48522;SDS011;34315;50.150;11.070;2023-10-19T21:41:42;19.98;;;13.85;;
48522;SDS011;34315;50.150;11.070;2023-10-19T21:46:44;21.95;;;14.55;;
48522;SDS011;34315;50.150;11.070;2023-10-19T21:51:45;23.42;;;14.43;;
48522;SDS011;34315;50.150;11.070;2023-10-19T21:56:46;20.73;;;13.45;;
48522;SDS011;34315;50.150;11.070;2023-10-19T22:01:47;20.25;;;14.20;;
48522;SDS011;34315;50.150;11.070;2023-10-19T22:06:49;24.73;;;14.68;;
48522;SDS011;34315;50.150;11.070;2023-10-19T22:11:50;19.02;;;13.73;;
48522;SDS011;34315;50.150;11.070;2023-10-19T22:16:51;22.77;;;13.73;;
48522;SDS011;34315;50.150;11.070;2023-10-19T22:21:53;20.80;;;14.45;;
48522;SDS011;34315;50.150;11.070;2023-10-19T22:26:57;22.25;;;14.32;;
48522;SDS011;34315;50.150;11.070;2023-10-19T22:31:58;21.35;;;13.57;;
48522;SDS011;34315;50.150;11.070;2023-10-19T22:36:59;22.80;;;13.98;;
48522;SDS011;34315;50.150;11.070;2023-10-19T22:42:01;19.13;;;13.80;;
48522;SDS011;34315;50.150;11.070;2023-10-19T22:47:02;19.73;;;13.25;;
48522;SDS011;34315;50.150;11.070;2023-10-19T22:52:04;19.27;;;12.95;;
48522;SDS011;34315;50.150;11.070;2023-10-19T22:57:06;20.20;;;13.05;;
48522;SDS011;34315;50.150;11.070;2023-10-19T23:02:07;22.00;;;14.50;;
48522;SDS011;34315;50.150;11.070;2023-10-19T23:07:08;20.77;;;13.85;;
48522;SDS011;34315;50.150;11.070;2023-10-19T23:12:09;20.88;;;13.38;;
48522;SDS011;34315;50.150;11.070;2023-10-19T23:17:18;22.20;;;13.98;;
48522;SDS011;34315;50.150;11.070;2023-10-19T23:22:31;19.55;;;12.95;;
48522;SDS011;34315;50.150;11.070;2023-10-19T23:27:32;22.00;;;14.38;;
48522;SDS011;34315;50.150;11.070;2023-10-19T23:32:33;18.95;;;12.77;;
48522;SDS011;34315;50.150;11.070;2023-10-19T23:37:35;23.90;;;12.75;;
48522;SDS011;34315;50.150;11.070;2023-10-19T23:42:37;21.00;;;13.70;;
48522;SDS011;34315;50.150;11.070;2023-10-19T23:47:40;19.23;;;11.80;;
48522;SDS011;34315;50.150;11.070;2023-10-19T23:52:41;19.15;;;12.57;;
48522;SDS011;34315;50.150;11.070;2023-10-19T23:57:42;17.70;;;12.68;;
